Pocatello, ID (83205)

3:58 AM MDT on July 24, 2017 (GMT -0600)
MWHDI1 | | Change Station
Active Advisory: Fire Weather Warning

Elev 6487 ft 42.76 °N, 112.48 °W | Updated 120 days ago

Clear
Clear
35.0 °F
Feels Like 35 °F
N
-
Wind Variable Wind from North

Today
High -- | Low -- °F
--% Chance of Precip.
Yesterday
High -- | Low -- °F
Precip. -- in
Pressure 29.84 in
Visibility 10.0 miles
Clouds Clear
Windchill 35 °F
Dew Point Not available.
Humidity Not available.
Rainfall 0.00 in
Snow Depth Not available.
6:13 AM 8:58 PM
New Moon, 1% visible
METAR KPIH 240953Z AUTO 35005KT 10SM CLR 16/05 A3000 RMK AO2 SLP103 T01560050
Pressure 29.84 in
Visibility 10.0 miles
Clouds Clear
Windchill 35 °F
Dew Point Not available.
Humidity Not available.
Rainfall 0.00 in
Snow Depth Not available.
6:13 AM 8:58 PM
New Moon, 1% visible
METAR KPIH 240953Z AUTO 35005KT 10SM CLR 16/05 A3000 RMK AO2 SLP103 T01560050

Get Your Daily Forecast Email!

Thanks for signing up!

Be on the lookout for a verification email in your inbox.

You'll start receiving severe weather alerts in your inbox..

×

10-Day Weather Forecast

Almanac

Astronomy

Jul. 24, 2017 Rise Set
Actual Time
Civil Twilight
Nautical Twilight
Astronomical Twilight
Moon
Length of Visible Light
Length of Day
Tomorrow will be .
, % of the Moon is Illuminated

Today's Extremes

State Highs State Lows

Community

WunderPhotos

Category 6

Welcome to Category 6. This is the collective home for Weather Underground's featured writeups by Dr. Jeff Masters (right), Bob Henson (left), Chris Burt, and other regular contributors.

Nearby

Air Quality

  Air Quality AQ Index Pollutant
Not available.

Snow Depth

Station Depth Elevation

Earthquake Activity

City Distance Mag. Time & Date
Minimum magnitude displayed is 2.5.

Coastal Water Temperatures

Place Temperature

Stations

Nearby Weather Stations

Station Location Temp. Windchill Dew Point Humidity Wind Precip. Elev Updated Type
                   

Watches & Warnings

Fire Weather Warning
Issued: 3:09 AM MDT Jul. 24, 2017 – National Weather Service

... Red flag warning remains in effect from noon today to 9 PM MDT
this evening for scattered thunderstorms for fire weather zones
425 and 427...

* affected area... fire weather zone 425.Fire weather zone 427.

* Wind... mainly west 5 to 10 mph with thunderstorm outflow wind
gusts up to 45 mph possible.

* Thunderstorms... potentially scattered in coverage Monday
afternoon and evening.

* Impacts... any fires that develop will likely spread rapidly.
Outdoor burning is not recommended.

Precautionary/preparedness actions...

A red flag warning means that critical fire weather conditions
are either occurring now, or will shortly. Fires may experience
rapid rates of growth. Please advise the appropriate officials or
fire crews in the field of the red flag warning for portions of
southeast Idaho.